Create Tblcommutelog Verified Points Advance Search
| # | Trip ID | Id Commuter | Trip Date | Trip Num | Current Lat | Current Lng | Delta Distance | Current Time | Activity | Activity Confidence | Current Speed | |
|---|---|---|---|---|---|---|---|---|---|---|---|---|
| 69121 | 250702_786113_16654392_1603 | 786113 | (not set) | (not set) | 38.802321185355 | -77.110119524992 | 12.2094 | 2025-07-02 20:24:30.456 | in_vehicle | 100 | 12.253346088854 | |
| 69122 | 250702_785264_16653381_1611 | 785264 | (not set) | (not set) | 38.89383067172 | -77.062919317479 | 0.6363 | 2025-07-02 20:24:30.49 | in_vehicle | 100 | -0.44703925898772 | |
| 69123 | 250702_777830_16645457_1622 | 777830 | (not set) | (not set) | 38.887852205682 | -77.028524445504 | 0 | 2025-07-02 20:24:33.046 | on_foot | 100 | -0.44703925898772 | |
| 69124 | 250702_777830_16645457_1622 | 777830 | (not set) | (not set) | 38.887852205682 | -77.028524445504 | 0.4686 | 2025-07-02 20:24:33.068 | on_foot | 100 | -0.44703925898772 | |
| 69125 | 250702_785822_16654025_1611 | 785822 | (not set) | (not set) | 38.959778738333 | -76.972315983768 | 3.1222 | 2025-07-02 20:24:38.183 | on_bicycle | 100 | 3.4869062201042 | |
| 69126 | 250702_780745_16648422_1551 | 780745 | (not set) | (not set) | 38.934267993659 | -77.247579407553 | 14.4625 | 2025-07-02 20:24:40.234 | in_vehicle | 100 | 12.548391999785 | |
| 69127 | 250702_734306_16598760_1558 | 734306 | (not set) | (not set) | 38.884305601286 | -76.99581816976 | 2.6015 | 2025-07-02 20:24:40.238 | in_vehicle | 100 | -0.44703925898772 | |
| 69128 | 250702_769460_16636522_1611 | 769460 | (not set) | (not set) | 38.906211351938 | -77.022240958308 | 1.8413 | 2025-07-02 20:24:41.933 | in_vehicle | 100 | -0.44703925898772 | |
| 69129 | 250702_784692_16652683_1607 | 784692 | (not set) | (not set) | 38.801418594975 | -77.113441807829 | 12.3643 | 2025-07-02 20:24:43.249 | in_vehicle | 100 | 8.6502096614125 | |
| 69130 | 250702_786113_16654392_1603 | 786113 | (not set) | (not set) | 38.801444342233 | -77.113427641405 | 12.3979 | 2025-07-02 20:24:43.303 | in_vehicle | 100 | 8.6055057355137 | |
| 69131 | 250702_785264_16653381_1611 | 785264 | (not set) | (not set) | 38.893033248726 | -77.064339010126 | 0.6363 | 2025-07-02 20:24:44.3 | in_vehicle | 100 | -0.44703925898772 | |
| 69132 | 250702_784108_16652594_1614 | 784108 | (not set) | (not set) | 39.077923800356 | -77.168931047235 | 6.9881 | 2025-07-02 20:24:49.241 | in_vehicle | 100 | 13.572111902867 | |
| 69133 | 250702_767309_16652068_1618 | 767309 | (not set) | (not set) | 38.89654284415 | -77.045020093788 | 0.3198 | 2025-07-02 20:24:51.426 | on_foot | 100 | 0.7465555625095 | |
| 69134 | 250702_786340_16654648_1615 | 786340 | (not set) | (not set) | 38.906774193798 | -77.003222919921 | 1.6225 | 2025-07-02 20:24:52.364 | in_vehicle | 100 | 3.3706760127674 | |
| 69135 | 250702_780745_16648422_1551 | 780745 | (not set) | (not set) | 38.933251278158 | -77.251657730863 | 14.6931 | 2025-07-02 20:24:53.198 | in_vehicle | 100 | 12.75850045151 | |
| 69136 | 250702_769460_16636522_1611 | 769460 | (not set) | (not set) | 38.908312050633 | -77.022198465391 | 1.8413 | 2025-07-02 20:24:53.204 | still | 33 | -0.44703925898772 | |
| 69137 | 250702_784692_16652683_1607 | 784692 | (not set) | (not set) | 38.800664168977 | -77.116252731768 | 12.5247 | 2025-07-02 20:24:56.235 | in_vehicle | 100 | 9.285005409175 | |
| 69138 | 250702_786113_16654392_1603 | 786113 | (not set) | (not set) | 38.800685587069 | -77.116226710059 | 12.5578 | 2025-07-02 20:24:56.276 | in_vehicle | 100 | 9.2671238388155 | |
| 69139 | 250702_785822_16654025_1611 | 785822 | (not set) | (not set) | 38.958594145928 | -76.973304699487 | 3.2198 | 2025-07-02 20:24:57.257 | on_bicycle | 100 | 3.6836034940588 | |
| 69140 | 250702_769460_16636522_1611 | 769460 | (not set) | (not set) | 38.907549556372 | -77.022226438805 | 1.8413 | 2025-07-02 20:24:58.803 | in_vehicle | 100 | -0.44703925898772 |